Time,TemperatureF,DewpointF,PressureIn,WindDirection,WindDirectionDegrees,WindSpeedMPH,WindSpeedGustMPH,Humidity,HourlyPrecipIn,Conditions,Clouds,dailyrainin,SoftwareType,DateUTC
2013-03-31 00:03:00,36.7,26.8,21.11,West,273,8.7,10.5,67,0.00,,---,0.00,VWS V14.01,2013-03-31 06:03:00,
2013-03-31 00:09:00,36.7,26.8,21.11,West,277,8.3,8.3,67,0.00,,---,0.00,VWS V14.01,2013-03-31 06:09:00,
2013-03-31 00:15:00,36.0,26.1,21.11,West,271,8.7,8.7,67,0.00,,---,0.00,VWS V14.01,2013-03-31 06:15:00,
2013-03-31 00:20:00,35.8,26.3,21.11,West,275,11.0,11.0,68,0.00,,---,0.00,VWS V14.01,2013-03-31 06:20:00,
2013-03-31 00:25:00,35.4,25.9,21.11,West,277,8.1,10.1,68,0.00,,---,0.00,VWS V14.01,2013-03-31 06:25:00,
2013-03-31 00:30:00,35.2,25.8,21.11,West,275,8.7,10.1,68,0.00,,---,0.00,VWS V14.01,2013-03-31 06:30:00,
2013-03-31 00:37:00,34.9,25.8,21.11,West,275,9.2,10.1,69,0.00,,---,0.00,VWS V14.01,2013-03-31 06:37:00,
2013-03-31 00:43:00,34.5,25.1,21.11,West,274,8.1,9.2,68,0.00,,---,0.00,VWS V14.01,2013-03-31 06:43:00,
2013-03-31 00:48:00,34.3,25.2,21.11,West,275,10.5,10.5,69,0.00,,---,0.00,VWS V14.01,2013-03-31 06:48:00,
2013-03-31 00:54:00,34.3,25.6,21.11,WNW,292,10.1,10.1,70,0.00,,---,0.00,VWS V14.01,2013-03-31 06:54:00,
2013-03-31 01:00:00,34.9,26.8,21.11,WNW,284,10.1,10.1,72,0.00,,---,0.00,VWS V14.01,2013-03-31 07:00:00,
2013-03-31 01:07:00,35.1,27.0,21.11,West,281,12.8,13.2,72,0.00,,---,0.00,VWS V14.01,2013-03-31 07:07:00,
2013-03-31 01:13:00,35.4,27.6,21.11,West,278,12.8,12.8,73,0.00,,---,0.00,VWS V14.01,2013-03-31 07:13:00,
2013-03-31 01:19:00,35.6,27.8,21.11,West,273,12.8,12.8,73,0.00,,---,0.00,VWS V14.01,2013-03-31 07:19:00,
2013-03-31 01:24:00,35.8,27.6,21.11,WNW,288,9.6,10.1,72,0.00,,---,0.00,VWS V14.01,2013-03-31 07:24:00,
2013-03-31 01:30:00,35.6,27.5,21.11,West,274,10.5,10.5,72,0.00,,---,0.00,VWS V14.01,2013-03-31 07:30:00,
2013-03-31 01:35:00,35.6,27.5,21.11,WNW,296,12.3,12.3,72,0.00,,---,0.00,VWS V14.01,2013-03-31 07:35:00,
2013-03-31 01:41:00,35.6,27.5,21.11,WNW,298,10.5,11.0,72,0.00,,---,0.00,VWS V14.01,2013-03-31 07:41:00,
2013-03-31 01:46:00,35.6,27.5,21.11,WNW,292,8.3,8.3,72,0.00,,---,0.00,VWS V14.01,2013-03-31 07:46:00,
2013-03-31 01:51:00,35.6,27.5,21.11,WNW,284,8.1,8.3,72,0.00,,---,0.00,VWS V14.01,2013-03-31 07:51:00,
2013-03-31 01:57:00,35.4,27.3,21.11,WNW,285,7.6,7.6,72,0.00,,---,0.00,VWS V14.01,2013-03-31 07:57:00,
2013-03-31 02:02:00,35.1,27.0,21.11,WNW,285,6.3,7.6,72,0.00,,---,0.00,VWS V14.01,2013-03-31 08:02:00,
2013-03-31 02:07:00,34.7,26.3,21.11,West,278,8.1,8.1,71,0.00,,---,0.00,VWS V14.01,2013-03-31 08:07:00,
2013-03-31 02:12:00,34.3,25.9,21.11,WNW,286,8.1,8.1,71,0.00,,---,0.00,VWS V14.01,2013-03-31 08:12:00,
2013-03-31 02:17:00,34.0,25.6,21.11,WSW,255,6.3,6.3,71,0.00,,---,0.00,VWS V14.01,2013-03-31 08:17:00,
2013-03-31 02:23:00,33.4,24.7,21.11,West,262,7.6,7.6,70,0.00,,---,0.00,VWS V14.01,2013-03-31 08:23:00,
2013-03-31 02:28:00,33.3,24.9,21.11,West,271,10.1,10.1,71,0.00,,---,0.00,VWS V14.01,2013-03-31 08:28:00,
2013-03-31 02:34:00,32.7,24.4,21.11,West,268,10.1,10.1,71,0.00,,---,0.00,VWS V14.01,2013-03-31 08:34:00,
2013-03-31 02:40:00,32.7,24.4,21.11,WNW,287,8.1,10.1,71,0.00,,---,0.00,VWS V14.01,2013-03-31 08:40:00,
2013-03-31 02:46:00,33.1,25.0,21.11,WNW,284,8.7,8.7,72,0.00,,---,0.00,VWS V14.01,2013-03-31 08:46:00,
2013-03-31 02:52:00,33.4,25.7,21.11,West,270,8.3,8.3,73,0.00,,---,0.00,VWS V14.01,2013-03-31 08:52:00,
2013-03-31 02:57:00,33.3,25.2,21.11,West,273,8.1,8.1,72,0.00,,---,0.00,VWS V14.01,2013-03-31 08:57:00,
2013-03-31 03:02:00,33.3,25.2,21.11,West,274,8.7,8.7,72,0.00,,---,0.00,VWS V14.01,2013-03-31 09:02:00,
2013-03-31 03:08:00,33.3,25.2,21.11,West,271,6.3,6.3,72,0.00,,---,0.00,VWS V14.01,2013-03-31 09:08:00,
2013-03-31 03:14:00,33.1,25.0,21.11,West,270,8.1,8.3,72,0.00,,---,0.00,VWS V14.01,2013-03-31 09:14:00,
2013-03-31 03:19:00,33.1,25.0,21.11,West,268,8.7,8.7,72,0.00,,---,0.00,VWS V14.01,2013-03-31 09:19:00,
2013-03-31 03:24:00,32.7,24.7,21.11,West,268,8.3,8.3,72,0.00,,---,0.00,VWS V14.01,2013-03-31 09:24:00,
2013-03-31 03:30:00,32.5,24.5,21.11,West,269,8.7,8.7,72,0.00,,---,0.00,VWS V14.01,2013-03-31 09:30:00,
2013-03-31 03:35:00,32.4,24.4,21.11,WSW,247,6.3,8.1,72,0.00,,---,0.00,VWS V14.01,2013-03-31 09:35:00,
2013-03-31 03:40:00,32.2,24.2,21.11,West,264,7.6,7.6,72,0.00,,---,0.00,VWS V14.01,2013-03-31 09:40:00,
2013-03-31 03:46:00,32.2,24.2,21.11,West,275,10.1,10.1,72,0.00,,---,0.00,VWS V14.01,2013-03-31 09:46:00,
2013-03-31 03:52:00,31.6,23.7,21.11,West,274,8.7,8.7,72,0.00,,---,0.00,VWS V14.01,2013-03-31 09:52:00,
2013-03-31 03:57:00,31.5,23.5,21.11,West,274,8.7,8.7,72,0.00,,---,0.00,VWS V14.01,2013-03-31 09:57:00,
2013-03-31 04:03:00,31.5,23.5,21.11,West,276,8.3,8.3,72,0.00,,---,0.00,VWS V14.01,2013-03-31 10:03:00,
2013-03-31 04:08:00,31.3,23.3,21.11,West,274,8.3,8.3,72,0.00,,---,0.00,VWS V14.01,2013-03-31 10:08:00,
2013-03-31 04:13:00,31.3,23.3,21.11,WNW,283,6.3,8.3,72,0.00,,---,0.00,VWS V14.01,2013-03-31 10:13:00,
2013-03-31 04:18:00,31.1,23.1,21.11,WNW,285,5.4,6.3,72,0.00,,---,0.00,VWS V14.01,2013-03-31 10:18:00,
2013-03-31 04:24:00,31.1,23.1,21.11,WNW,288,6.3,6.3,72,0.00,,---,0.00,VWS V14.01,2013-03-31 10:24:00,
2013-03-31 04:29:00,31.1,23.1,21.11,West,275,8.3,8.3,72,0.00,,---,0.00,VWS V14.01,2013-03-31 10:29:00,
2013-03-31 04:35:00,30.9,23.0,21.11,WNW,288,7.2,7.2,72,0.00,,---,0.00,VWS V14.01,2013-03-31 10:35:00,
2013-03-31 04:40:00,30.7,22.8,21.11,West,270,8.3,8.3,72,0.00,,---,0.00,VWS V14.01,2013-03-31 10:40:00,
2013-03-31 04:46:00,30.7,22.8,21.11,West,277,8.7,9.2,72,0.00,,---,0.00,VWS V14.01,2013-03-31 10:46:00,
2013-03-31 04:51:00,30.6,22.6,21.11,WNW,287,8.3,8.3,72,0.00,,---,0.00,VWS V14.01,2013-03-31 10:51:00,
2013-03-31 04:56:00,30.6,22.6,21.11,WNW,289,10.1,10.1,72,0.00,,---,0.00,VWS V14.01,2013-03-31 10:56:00,
2013-03-31 05:02:00,31.1,23.8,21.11,WNW,283,10.5,11.0,74,0.00,,---,0.00,VWS V14.01,2013-03-31 11:02:00,
2013-03-31 05:07:00,31.5,24.1,21.11,WNW,292,11.0,11.0,74,0.00,,---,0.00,VWS V14.01,2013-03-31 11:07:00,
2013-03-31 05:13:00,31.3,23.6,21.11,WNW,294,7.6,8.7,73,0.00,,---,0.00,VWS V14.01,2013-03-31 11:13:00,
2013-03-31 05:18:00,31.3,23.6,21.11,WNW,299,7.6,7.6,73,0.00,,---,0.00,VWS V14.01,2013-03-31 11:18:00,
2013-03-31 05:24:00,31.5,24.1,21.11,NW,306,9.6,9.6,74,0.00,,---,0.00,VWS V14.01,2013-03-31 11:24:00,
2013-03-31 05:29:00,31.5,24.1,21.11,NW,304,6.7,8.1,74,0.00,,---,0.00,VWS V14.01,2013-03-31 11:29:00,
2013-03-31 05:35:00,31.5,24.1,21.11,WNW,295,8.7,8.7,74,0.00,,---,0.00,VWS V14.01,2013-03-31 11:35:00,
2013-03-31 05:41:00,31.5,24.1,21.11,WNW,295,8.7,8.7,74,0.00,,---,0.00,VWS V14.01,2013-03-31 11:41:00,
2013-03-31 05:46:00,31.5,24.1,21.11,WNW,289,5.8,5.8,74,0.00,,---,0.00,VWS V14.01,2013-03-31 11:46:00,
2013-03-31 05:53:00,31.1,23.5,21.11,WNW,303,5.8,6.3,73,0.00,,---,0.00,VWS V14.01,2013-03-31 11:53:00,
2013-03-31 05:59:00,30.6,23.0,21.11,WNW,299,7.6,7.6,73,0.00,,---,0.00,VWS V14.01,2013-03-31 11:59:00,
2013-03-31 06:04:00,30.6,23.0,21.11,NW,313,10.1,10.1,73,0.00,,---,0.00,VWS V14.01,2013-03-31 12:04:00,
2013-03-31 06:10:00,30.6,23.3,21.11,WNW,300,8.3,8.3,74,0.00,,---,0.00,VWS V14.01,2013-03-31 12:10:00,
2013-03-31 06:16:00,31.1,23.8,21.11,WNW,296,9.2,9.2,74,0.00,,---,0.00,VWS V14.01,2013-03-31 12:16:00,
2013-03-31 06:21:00,31.3,24.0,21.11,NW,305,8.3,10.1,74,0.00,,---,0.00,VWS V14.01,2013-03-31 12:21:00,
2013-03-31 06:26:00,31.5,24.1,21.11,WNW,299,8.3,8.3,74,0.00,,---,0.00,VWS V14.01,2013-03-31 12:26:00,
2013-03-31 06:32:00,31.6,24.3,21.11,NW,305,8.7,8.7,74,0.00,,---,0.00,VWS V14.01,2013-03-31 12:32:00,
2013-03-31 06:38:00,31.6,24.3,21.11,WNW,300,8.7,8.7,74,0.00,,---,0.00,VWS V14.01,2013-03-31 12:38:00,
2013-03-31 06:43:00,32.0,24.7,21.11,WNW,302,8.7,8.7,74,0.00,,---,0.00,VWS V14.01,2013-03-31 12:43:00,
2013-03-31 06:49:00,32.2,24.8,21.11,WNW,299,5.8,8.3,74,0.00,,---,0.00,VWS V14.01,2013-03-31 12:49:00,
2013-03-31 06:54:00,32.4,25.0,21.11,WNW,302,8.1,8.3,74,0.00,,---,0.00,VWS V14.01,2013-03-31 12:54:00,
2013-03-31 07:00:00,32.7,25.4,21.11,WNW,303,7.6,7.6,74,0.00,,---,0.00,VWS V14.01,2013-03-31 13:00:00,
2013-03-31 07:07:00,33.1,25.7,21.11,WNW,301,8.1,8.1,74,0.00,,---,0.00,VWS V14.01,2013-03-31 13:07:00,
2013-03-31 07:13:00,33.4,26.1,21.11,WNW,300,8.3,8.3,74,0.00,,---,0.00,VWS V14.01,2013-03-31 13:13:00,
2013-03-31 07:19:00,33.6,26.2,21.11,NW,307,8.7,8.7,74,0.00,,---,0.00,VWS V14.01,2013-03-31 13:19:00,
2013-03-31 07:24:00,33.8,26.1,21.11,NW,310,5.8,8.3,73,0.00,,---,0.00,VWS V14.01,2013-03-31 13:24:00,
2013-03-31 07:30:00,33.8,26.1,21.11,NW,304,5.8,8.3,73,0.00,,---,0.00,VWS V14.01,2013-03-31 13:30:00,
2013-03-31 07:35:00,34.3,26.9,21.11,NW,313,7.6,8.7,74,0.00,,---,0.00,VWS V14.01,2013-03-31 13:35:00,
2013-03-31 07:42:00,34.9,27.5,21.11,NW,309,7.6,8.1,74,0.00,,---,0.00,VWS V14.01,2013-03-31 13:42:00,
2013-03-31 07:48:00,35.2,27.8,21.11,WNW,302,7.6,8.3,74,0.00,,---,0.00,VWS V14.01,2013-03-31 13:48:00,
2013-03-31 07:53:00,35.2,27.8,21.11,WNW,303,5.4,6.3,74,0.00,,---,0.00,VWS V14.01,2013-03-31 13:53:00,
2013-03-31 07:59:00,36.5,29.0,21.11,WNW,299,7.6,7.6,74,0.00,,---,0.00,VWS V14.01,2013-03-31 13:59:00,
2013-03-31 08:05:00,37.0,29.5,21.11,West,278,8.1,8.1,74,0.00,,---,0.00,VWS V14.01,2013-03-31 14:05:00,
2013-03-31 08:10:00,37.4,29.9,21.11,WNW,284,10.1,10.1,74,0.00,,---,0.00,VWS V14.01,2013-03-31 14:10:00,
2013-03-31 08:17:00,37.4,29.9,21.11,WNW,292,5.8,5.8,74,0.00,,---,0.00,VWS V14.01,2013-03-31 14:17:00,
2013-03-31 08:22:00,38.1,30.2,21.11,West,272,6.3,6.3,73,0.00,,---,0.00,VWS V14.01,2013-03-31 14:22:00,
2013-03-31 08:27:00,38.5,30.2,21.11,WNW,287,8.7,8.7,72,0.00,,---,0.00,VWS V14.01,2013-03-31 14:27:00,
2013-03-31 08:32:00,38.5,30.2,21.11,WNW,284,6.3,7.6,72,0.00,,---,0.00,VWS V14.01,2013-03-31 14:32:00,
2013-03-31 08:37:00,38.5,30.2,21.11,West,270,4.9,4.9,72,0.00,,---,0.00,VWS V14.01,2013-03-31 14:37:00,
2013-03-31 08:42:00,39.9,31.6,21.11,WSW,240,5.8,5.8,72,0.00,,---,0.00,VWS V14.01,2013-03-31 14:42:00,
2013-03-31 08:48:00,40.5,31.8,21.11,WSW,254,5.8,6.3,71,0.00,,---,0.00,VWS V14.01,2013-03-31 14:48:00,
2013-03-31 08:53:00,40.6,32.0,21.11,WSW,256,5.4,6.3,71,0.00,,---,0.00,VWS V14.01,2013-03-31 14:53:00,
2013-03-31 08:58:00,40.8,31.8,21.11,WSW,257,5.4,5.8,70,0.00,,---,0.00,VWS V14.01,2013-03-31 14:58:00,
2013-03-31 09:03:00,41.4,31.6,21.11,SW,236,5.8,6.3,68,0.00,,---,0.00,VWS V14.01,2013-03-31 15:03:00,
2013-03-31 09:09:00,42.1,32.3,21.11,SSW,211,3.1,4.0,68,0.00,,---,0.00,VWS V14.01,2013-03-31 15:09:00,
2013-03-31 09:14:00,42.4,32.6,21.11,SW,221,3.1,3.1,68,0.00,,---,0.00,VWS V14.01,2013-03-31 15:14:00,
2013-03-31 09:19:00,43.0,32.4,21.11,SSW,210,4.0,4.0,66,0.00,,---,0.00,VWS V14.01,2013-03-31 15:19:00,
2013-03-31 09:25:00,43.9,33.7,21.11,SSW,196,0.0,3.1,67,0.00,,---,0.00,VWS V14.01,2013-03-31 15:25:00,
2013-03-31 09:30:00,43.9,33.7,21.11,SSW,192,4.0,4.0,67,0.00,,---,0.00,VWS V14.01,2013-03-31 15:30:00,
2013-03-31 09:36:00,45.5,34.8,21.11,SSW,193,3.1,3.1,66,0.00,,---,0.00,VWS V14.01,2013-03-31 15:36:00,
2013-03-31 09:42:00,46.4,34.9,21.11,SSW,193,5.8,5.8,64,0.00,,---,0.00,VWS V14.01,2013-03-31 15:42:00,
2013-03-31 09:48:00,46.4,32.9,21.11,SSW,197,5.8,6.3,59,0.00,,---,0.00,VWS V14.01,2013-03-31 15:48:00,
2013-03-31 09:54:00,46.4,30.7,21.11,South,178,7.6,7.6,54,0.00,,---,0.00,VWS V14.01,2013-03-31 15:54:00,
2013-03-31 10:00:00,46.9,30.7,21.11,SSW,210,4.0,4.9,53,0.00,,---,0.00,VWS V14.01,2013-03-31 16:00:00,
2013-03-31 10:05:00,47.7,30.0,21.11,SSW,194,8.1,8.1,50,0.00,,---,0.00,VWS V14.01,2013-03-31 16:05:00,
2013-03-31 10:11:00,48.0,28.2,21.11,SSW,205,6.3,8.1,46,0.00,,---,0.00,VWS V14.01,2013-03-31 16:11:00,
2013-03-31 10:16:00,48.2,26.8,21.11,SSW,213,5.8,8.1,43,0.00,,---,0.00,VWS V14.01,2013-03-31 16:16:00,
2013-03-31 10:21:00,48.6,26.5,21.11,SSW,205,8.3,8.3,42,0.00,,---,0.00,VWS V14.01,2013-03-31 16:21:00,
2013-03-31 10:26:00,48.9,25.1,21.11,SSW,204,9.6,11.0,39,0.00,,---,0.00,VWS V14.01,2013-03-31 16:26:00,
2013-03-31 10:32:00,49.3,25.4,21.11,SSW,202,7.6,7.6,39,0.00,,---,0.00,VWS V14.01,2013-03-31 16:32:00,
2013-03-31 10:37:00,50.0,25.4,21.11,SSW,200,8.1,11.0,38,0.00,,---,0.00,VWS V14.01,2013-03-31 16:37:00,
2013-03-31 10:42:00,50.4,25.1,21.11,SW,233,12.8,12.8,37,0.00,,---,0.00,VWS V14.01,2013-03-31 16:42:00,
2013-03-31 10:48:00,51.1,25.1,21.11,SSW,208,12.8,12.8,36,0.00,,---,0.00,VWS V14.01,2013-03-31 16:48:00,
2013-03-31 10:54:00,51.6,25.6,21.11,SSW,210,8.3,10.1,36,0.00,,---,0.00,VWS V14.01,2013-03-31 16:54:00,
2013-03-31 11:00:00,52.3,25.5,21.11,South,179,10.5,12.3,35,0.00,,---,0.00,VWS V14.01,2013-03-31 17:00:00,
2013-03-31 11:05:00,53.1,24.7,21.11,SSW,211,12.3,12.3,33,0.00,,---,0.00,VWS V14.01,2013-03-31 17:05:00,
2013-03-31 11:11:00,53.6,24.5,21.11,SSW,192,8.7,15.0,32,0.00,,---,0.00,VWS V14.01,2013-03-31 17:11:00,
2013-03-31 11:17:00,54.3,24.4,21.11,SSW,198,15.0,15.0,31,0.00,,---,0.00,VWS V14.01,2013-03-31 17:17:00,
2013-03-31 11:22:00,54.7,23.9,21.11,SSW,207,10.5,10.5,30,0.00,,---,0.00,VWS V14.01,2013-03-31 17:22:00,
2013-03-31 11:27:00,55.4,23.7,21.11,SSW,196,15.4,17.4,29,0.00,,---,0.00,VWS V14.01,2013-03-31 17:27:00,
2013-03-31 11:32:00,55.8,23.2,21.11,South,180,13.2,13.6,28,0.00,,---,0.00,VWS V14.01,2013-03-31 17:32:00,
2013-03-31 11:38:00,55.9,23.3,21.11,SSW,198,15.4,15.4,28,0.00,,---,0.00,VWS V14.01,2013-03-31 17:38:00,
2013-03-31 11:43:00,56.1,23.5,21.11,SSW,195,13.6,13.6,28,0.00,,---,0.00,VWS V14.01,2013-03-31 17:43:00,
2013-03-31 11:49:00,56.5,22.9,21.11,SSW,207,12.3,12.3,27,0.00,,---,0.00,VWS V14.01,2013-03-31 17:49:00,
2013-03-31 11:54:00,56.8,23.2,21.11,SSW,210,11.9,11.9,27,0.00,,---,0.00,VWS V14.01,2013-03-31 17:54:00,
2013-03-31 12:00:00,57.6,23.0,21.11,SSW,203,17.4,17.4,26,0.00,,---,0.00,VWS V14.01,2013-03-31 18:00:00,
2013-03-31 12:06:00,58.1,23.4,21.11,SSW,209,15.4,17.4,26,0.00,,---,0.00,VWS V14.01,2013-03-31 18:06:00,
2013-03-31 12:12:00,58.1,23.4,21.11,South,181,13.2,14.5,26,0.00,,---,0.00,VWS V14.01,2013-03-31 18:12:00,
2013-03-31 12:18:00,58.3,23.6,21.11,South,180,12.8,12.8,26,0.00,,---,0.00,VWS V14.01,2013-03-31 18:18:00,
2013-03-31 12:23:00,58.5,23.7,21.11,SW,226,10.1,16.3,26,0.00,,---,0.00,VWS V14.01,2013-03-31 18:23:00,
2013-03-31 12:28:00,58.8,24.0,21.11,SW,217,15.9,18.8,26,0.00,,---,0.00,VWS V14.01,2013-03-31 18:28:00,
2013-03-31 12:34:00,59.0,23.2,21.11,SW,234,11.9,17.4,25,0.00,,---,0.00,VWS V14.01,2013-03-31 18:34:00,
2013-03-31 12:39:00,59.2,24.3,21.11,South,187,12.8,19.7,26,0.00,,---,0.00,VWS V14.01,2013-03-31 18:39:00,
2013-03-31 12:45:00,59.4,23.6,21.11,SW,216,25.1,25.7,25,0.00,,---,0.00,VWS V14.01,2013-03-31 18:45:00,
2013-03-31 12:50:00,59.5,24.6,21.11,SW,229,11.0,12.8,26,0.00,,---,0.00,VWS V14.01,2013-03-31 18:50:00,
2013-03-31 12:57:00,60.1,24.2,21.11,SSW,205,11.9,11.9,25,0.00,,---,0.00,VWS V14.01,2013-03-31 18:57:00,
2013-03-31 13:03:00,60.6,24.6,21.11,SSW,200,13.2,16.8,25,0.00,,---,0.00,VWS V14.01,2013-03-31 19:03:00,
2013-03-31 13:09:00,61.3,24.3,21.11,SW,220,12.8,12.8,24,0.00,,---,0.00,VWS V14.01,2013-03-31 19:09:00,
2013-03-31 13:14:00,61.7,24.6,21.11,SW,228,12.8,15.0,24,0.00,,---,0.00,VWS V14.01,2013-03-31 19:14:00,
2013-03-31 13:20:00,62.1,24.9,21.11,SW,227,12.8,13.2,24,0.00,,---,0.00,VWS V14.01,2013-03-31 19:20:00,
2013-03-31 13:25:00,62.4,22.0,21.11,SSW,205,20.1,20.1,21,0.00,,---,0.00,VWS V14.01,2013-03-31 19:25:00,
2013-03-31 13:31:00,62.4,22.0,21.11,SSW,199,19.7,19.7,21,0.00,,---,0.00,VWS V14.01,2013-03-31 19:31:00,
2013-03-31 13:36:00,62.6,22.1,21.11,WSW,240,17.4,17.4,21,0.00,,---,0.00,VWS V14.01,2013-03-31 19:36:00,
2013-03-31 13:42:00,63.0,22.5,21.11,SSW,202,15.0,15.0,21,0.00,,---,0.00,VWS V14.01,2013-03-31 19:42:00,
2013-03-31 13:48:00,63.5,19.3,21.11,SSW,206,18.3,18.3,18,0.00,,---,0.00,VWS V14.01,2013-03-31 19:48:00,
2013-03-31 13:53:00,63.5,19.3,21.11,SSW,209,15.9,15.9,18,0.00,,---,0.00,VWS V14.01,2013-03-31 19:53:00,
2013-03-31 13:59:00,63.5,19.3,21.11,WSW,240,11.9,11.9,18,0.00,,---,0.00,VWS V14.01,2013-03-31 19:59:00,
2013-03-31 14:04:00,63.5,19.3,21.11,SW,222,12.8,15.4,18,0.00,,---,0.00,VWS V14.01,2013-03-31 20:04:00,
2013-03-31 14:09:00,63.5,19.3,21.11,SW,225,10.5,17.0,18,0.00,,---,0.00,VWS V14.01,2013-03-31 20:09:00,
2013-03-31 14:15:00,64.0,17.0,21.11,SW,230,18.8,18.8,16,0.00,,---,0.00,VWS V14.01,2013-03-31 20:15:00,
2013-03-31 14:20:00,64.6,15.9,21.11,WSW,244,11.9,11.9,15,0.00,,---,0.00,VWS V14.01,2013-03-31 20:20:00,
2013-03-31 14:26:00,64.8,16.1,21.11,WSW,246,15.4,15.4,15,0.00,,---,0.00,VWS V14.01,2013-03-31 20:26:00,
2013-03-31 14:31:00,64.6,15.9,21.11,WNW,293,15.4,15.4,15,0.00,,---,0.00,VWS V14.01,2013-03-31 20:31:00,
2013-03-31 14:37:00,64.6,15.9,21.11,SW,224,15.4,15.4,15,0.00,,---,0.00,VWS V14.01,2013-03-31 20:37:00,
2013-03-31 14:43:00,65.1,16.4,21.11,South,178,20.6,20.6,15,0.00,,---,0.00,VWS V14.01,2013-03-31 20:43:00,
2013-03-31 14:48:00,65.7,16.8,21.11,WSW,239,14.1,17.4,15,0.00,,---,0.00,VWS V14.01,2013-03-31 20:48:00,
2013-03-31 14:54:00,65.7,16.8,21.11,WSW,248,10.5,12.3,15,0.00,,---,0.00,VWS V14.01,2013-03-31 20:54:00,
2013-03-31 14:59:00,65.8,16.9,21.11,SW,224,19.2,19.2,15,0.00,,---,0.00,VWS V14.01,2013-03-31 20:59:00,
2013-03-31 15:05:00,65.8,16.9,21.11,SW,225,8.3,8.3,15,0.00,,---,0.00,VWS V14.01,2013-03-31 21:05:00,
2013-03-31 15:10:00,66.0,13.8,21.11,WSW,250,25.1,25.1,13,0.00,,---,0.00,VWS V14.01,2013-03-31 21:10:00,
2013-03-31 15:16:00,66.7,12.5,21.11,SW,221,10.1,17.0,12,0.00,,---,0.00,VWS V14.01,2013-03-31 21:16:00,
2013-03-31 15:22:00,66.6,12.4,21.11,West,270,15.4,15.4,12,0.00,,---,0.00,VWS V14.01,2013-03-31 21:22:00,
2013-03-31 15:27:00,66.7,12.5,21.11,WSW,258,8.3,8.3,12,0.00,,---,0.00,VWS V14.01,2013-03-31 21:27:00,
2013-03-31 15:33:00,66.9,12.7,21.11,WNW,291,11.0,11.0,12,0.00,,---,0.00,VWS V14.01,2013-03-31 21:33:00,
2013-03-31 15:39:00,67.8,13.4,21.11,West,277,14.5,17.0,12,0.00,,---,0.00,VWS V14.01,2013-03-31 21:39:00,
2013-03-31 15:44:00,68.4,13.8,21.11,West,267,15.9,16.3,12,0.00,,---,0.00,VWS V14.01,2013-03-31 21:44:00,
2013-03-31 15:49:00,68.4,13.8,21.11,West,271,20.1,20.1,12,0.00,,---,0.00,VWS V14.01,2013-03-31 21:49:00,
2013-03-31 15:54:00,67.6,13.2,21.11,NW,306,11.0,12.8,12,0.00,,---,0.00,VWS V14.01,2013-03-31 21:54:00,
2013-03-31 15:59:00,67.1,12.8,21.11,WNW,293,13.2,15.4,12,0.00,,---,0.00,VWS V14.01,2013-03-31 21:59:00,
2013-03-31 16:05:00,67.1,12.8,21.11,West,276,11.0,12.3,12,0.00,,---,0.00,VWS V14.01,2013-03-31 22:05:00,
2013-03-31 16:10:00,67.6,9.1,21.11,WNW,289,23.3,23.3,10,0.00,,---,0.00,VWS V14.01,2013-03-31 22:10:00,
2013-03-31 16:17:00,68.2,9.6,21.11,WNW,292,15.0,23.7,10,0.00,,---,0.00,VWS V14.01,2013-03-31 22:17:00,
2013-03-31 16:23:00,68.0,9.4,21.11,WNW,296,17.0,17.0,10,0.00,,---,0.00,VWS V14.01,2013-03-31 22:23:00,
2013-03-31 16:29:00,68.0,9.4,21.11,WNW,295,17.4,28.4,10,0.00,,---,0.00,VWS V14.01,2013-03-31 22:29:00,
2013-03-31 16:35:00,67.8,9.3,21.11,WNW,297,22.8,22.8,10,0.00,,---,0.00,VWS V14.01,2013-03-31 22:35:00,
2013-03-31 16:40:00,67.6,9.1,21.11,WNW,302,15.0,15.0,10,0.00,,---,0.00,VWS V14.01,2013-03-31 22:40:00,
2013-03-31 16:46:00,67.5,9.0,21.11,NW,311,24.2,24.2,10,0.00,,---,0.00,VWS V14.01,2013-03-31 22:46:00,
2013-03-31 16:52:00,67.3,8.9,21.11,NW,311,24.2,24.2,10,0.00,,---,0.00,VWS V14.01,2013-03-31 22:52:00,
2013-03-31 16:58:00,67.1,8.7,21.11,NNW,344,17.4,18.8,10,0.00,,---,0.00,VWS V14.01,2013-03-31 22:58:00,
2013-03-31 17:03:00,66.9,8.6,21.11,NW,309,17.9,21.9,10,0.00,,---,0.00,VWS V14.01,2013-03-31 23:03:00,
2013-03-31 17:08:00,66.7,8.5,21.11,NW,310,21.9,21.9,10,0.00,,---,0.00,VWS V14.01,2013-03-31 23:08:00,
2013-03-31 17:14:00,66.7,8.5,21.11,NW,309,17.0,17.4,10,0.00,,---,0.00,VWS V14.01,2013-03-31 23:14:00,
2013-03-31 17:19:00,66.7,8.5,21.11,NNW,335,17.4,22.4,10,0.00,,---,0.00,VWS V14.01,2013-03-31 23:19:00,
2013-03-31 17:24:00,66.7,8.5,21.11,WNW,298,15.4,18.8,10,0.00,,---,0.00,VWS V14.01,2013-03-31 23:24:00,
2013-03-31 17:29:00,66.7,8.5,21.11,NW,311,25.1,25.1,10,0.00,,---,0.00,VWS V14.01,2013-03-31 23:29:00,
2013-03-31 17:35:00,66.6,8.3,21.11,NW,326,14.5,19.2,10,0.00,,---,0.00,VWS V14.01,2013-03-31 23:35:00,
2013-03-31 17:40:00,66.4,8.2,21.11,NW,321,10.5,12.3,10,0.00,,---,0.00,VWS V14.01,2013-03-31 23:40:00,
2013-03-31 17:45:00,66.2,8.1,21.11,NW,324,11.0,14.5,10,0.00,,---,0.00,VWS V14.01,2013-03-31 23:45:00,
2013-03-31 17:50:00,66.2,8.1,21.11,WNW,303,14.1,14.5,10,0.00,,---,0.00,VWS V14.01,2013-03-31 23:50:00,
2013-03-31 17:55:00,66.0,7.9,21.11,NW,321,17.4,17.4,10,0.00,,---,0.00,VWS V14.01,2013-03-31 23:55:00,
2013-03-31 18:00:00,65.8,7.8,21.11,NW,320,13.2,15.0,10,0.00,,---,0.00,VWS V14.01,2013-04-01 00:00:00,
2013-03-31 18:05:00,65.7,7.6,21.11,NW,315,15.9,17.9,10,0.00,,---,0.00,VWS V14.01,2013-04-01 00:05:00,
2013-03-31 18:12:00,65.3,7.4,21.11,NNW,330,15.4,17.4,10,0.00,,---,0.00,VWS V14.01,2013-04-01 00:12:00,
2013-03-31 18:18:00,64.9,7.1,21.11,NNW,327,12.8,13.2,10,0.00,,---,0.00,VWS V14.01,2013-04-01 00:18:00,
2013-03-31 18:24:00,64.6,6.8,21.11,North,0,8.7,11.0,10,0.00,,---,0.00,VWS V14.01,2013-04-01 00:24:00,
2013-03-31 18:29:00,64.0,8.5,21.11,NNW,334,13.2,15.4,11,0.00,,---,0.00,VWS V14.01,2013-04-01 00:29:00,
2013-03-31 18:35:00,63.5,8.1,21.11,NNW,328,14.1,17.0,11,0.00,,---,0.00,VWS V14.01,2013-04-01 00:35:00,
2013-03-31 18:40:00,62.8,7.5,21.11,NNW,335,11.0,12.3,11,0.00,,---,0.00,VWS V14.01,2013-04-01 00:40:00,
2013-03-31 18:47:00,61.9,6.8,21.11,NNW,340,8.3,11.0,11,0.00,,---,0.00,VWS V14.01,2013-04-01 00:47:00,
2013-03-31 18:52:00,61.3,6.4,21.11,NNW,336,13.2,13.2,11,0.00,,---,0.00,VWS V14.01,2013-04-01 00:52:00,
2013-03-31 18:57:00,61.0,6.1,21.11,NNW,342,10.5,10.5,11,0.00,,---,0.00,VWS V14.01,2013-04-01 00:57:00,
2013-03-31 19:03:00,60.1,7.3,21.11,North,350,12.8,16.8,12,0.00,,---,0.00,VWS V14.01,2013-04-01 01:03:00,
2013-03-31 19:08:00,59.4,6.8,21.11,NNW,341,12.3,12.3,12,0.00,,---,0.00,VWS V14.01,2013-04-01 01:08:00,
2013-03-31 19:14:00,58.6,6.2,21.11,North,353,11.4,11.4,12,0.00,,---,0.00,VWS V14.01,2013-04-01 01:14:00,
2013-03-31 19:20:00,57.9,5.6,21.11,NNE,24,23.3,26.6,12,0.00,,---,0.00,VWS V14.01,2013-04-01 01:20:00,
2013-03-31 19:25:00,57.0,9.8,21.11,North,7,26.6,26.6,15,0.00,,---,0.00,VWS V14.01,2013-04-01 01:25:00,
2013-03-31 19:30:00,55.9,9.0,21.11,North,8,25.1,25.1,15,0.00,,---,0.00,VWS V14.01,2013-04-01 01:30:00,
2013-03-31 19:35:00,54.9,12.2,21.11,North,3,18.8,24.6,18,0.00,,---,0.00,VWS V14.01,2013-04-01 01:35:00,
2013-03-31 19:41:00,54.0,13.8,21.11,NNE,18,22.8,26.2,20,0.00,,---,0.00,VWS V14.01,2013-04-01 01:41:00,
2013-03-31 19:46:00,53.2,14.3,21.11,North,8,27.5,27.5,21,0.00,,---,0.00,VWS V14.01,2013-04-01 01:46:00,
2013-03-31 19:51:00,52.5,15.8,21.11,North,10,26.6,30.6,23,0.00,,---,0.00,VWS V14.01,2013-04-01 01:51:00,
2013-03-31 19:57:00,51.8,18.0,21.11,North,357,25.5,26.6,26,0.00,,---,0.00,VWS V14.01,2013-04-01 01:57:00,
2013-03-31 20:02:00,51.3,17.6,21.11,NNE,24,23.3,24.2,26,0.00,,---,0.00,VWS V14.01,2013-04-01 02:02:00,
2013-03-31 20:07:00,50.5,17.0,21.11,NNE,22,22.8,24.6,26,0.00,,---,0.00,VWS V14.01,2013-04-01 02:07:00,
2013-03-31 20:12:00,49.6,17.0,21.11,NE,38,16.3,19.2,27,0.00,,---,0.00,VWS V14.01,2013-04-01 02:12:00,
2013-03-31 20:18:00,48.7,16.3,21.11,NNE,13,25.5,27.5,27,0.00,,---,0.00,VWS V14.01,2013-04-01 02:18:00,
2013-03-31 20:24:00,47.8,15.5,21.11,North,7,27.5,27.5,27,0.00,,---,0.00,VWS V14.01,2013-04-01 02:24:00,
2013-03-31 20:30:00,46.6,15.2,21.11,NNE,26,22.4,23.3,28,0.00,,---,0.00,VWS V14.01,2013-04-01 02:30:00,
2013-03-31 20:35:00,45.9,14.6,21.11,NE,36,17.9,25.1,28,0.00,,---,0.00,VWS V14.01,2013-04-01 02:35:00,
2013-03-31 20:40:00,45.1,14.0,21.11,NE,37,19.2,19.2,28,0.00,,---,0.00,VWS V14.01,2013-04-01 02:40:00,
2013-03-31 20:45:00,44.6,13.5,21.11,NNE,30,17.4,20.6,28,0.00,,---,0.00,VWS V14.01,2013-04-01 02:45:00,
2013-03-31 20:51:00,44.1,13.9,21.11,North,8,17.0,18.8,29,0.00,,---,0.00,VWS V14.01,2013-04-01 02:51:00,
2013-03-31 20:56:00,43.5,13.4,21.11,NNE,29,21.0,21.0,29,0.00,,---,0.00,VWS V14.01,2013-04-01 02:56:00,
2013-03-31 21:02:00,42.6,12.6,21.11,NNE,25,22.8,22.8,29,0.00,,---,0.00,VWS V14.01,2013-04-01 03:02:00,
2013-03-31 21:07:00,42.6,12.6,21.11,NNE,18,20.6,23.3,29,0.00,,---,0.00,VWS V14.01,2013-04-01 03:07:00,
2013-03-31 21:13:00,41.4,11.5,21.11,NNE,27,24.2,25.1,29,0.00,,---,0.00,VWS V14.01,2013-04-01 03:13:00,
2013-03-31 21:19:00,41.0,11.2,21.11,NNE,18,20.1,21.0,29,0.00,,---,0.00,VWS V14.01,2013-04-01 03:19:00,
2013-03-31 21:25:00,40.8,11.0,21.11,NNE,16,25.1,25.1,29,0.00,,---,0.00,VWS V14.01,2013-04-01 03:25:00,
2013-03-31 21:31:00,40.6,10.9,21.11,NNE,12,13.2,15.4,29,0.00,,---,0.00,VWS V14.01,2013-04-01 03:31:00,
2013-03-31 21:36:00,40.6,10.9,21.11,NNE,32,22.4,27.5,29,0.00,,---,0.00,VWS V14.01,2013-04-01 03:36:00,
2013-03-31 21:42:00,39.9,10.2,21.11,North,6,28.4,28.4,29,0.00,,---,0.00,VWS V14.01,2013-04-01 03:42:00,
2013-03-31 21:48:00,39.6,9.9,21.11,NNE,22,19.7,19.7,29,0.00,,---,0.00,VWS V14.01,2013-04-01 03:48:00,
2013-03-31 21:54:00,39.4,9.8,21.11,NNE,21,18.3,27.5,29,0.00,,---,0.00,VWS V14.01,2013-04-01 03:54:00,
2013-03-31 21:59:00,39.0,9.5,21.11,NNE,19,25.5,26.2,29,0.00,,---,0.00,VWS V14.01,2013-04-01 03:59:00,
2013-03-31 22:00:00,39.0,9.5,21.11,NNE,27,25.5,25.5,29,0.00,,---,0.00,VWS V14.01,2013-04-01 04:00:00,
2013-03-31 22:01:00,39.0,9.5,21.11,NNE,12,23.3,25.5,29,0.00,,---,0.00,VWS V14.01,2013-04-01 04:01:00,
2013-03-31 22:02:00,39.0,9.5,21.11,NNE,22,23.7,28.9,29,0.00,,---,0.00,VWS V14.01,2013-04-01 04:02:00,
2013-03-31 22:05:00,38.7,9.2,21.11,NNE,15,23.7,26.6,29,0.00,,---,0.00,VWS V14.01,2013-04-01 04:05:00,
2013-03-31 22:10:00,38.7,9.2,21.11,NNE,17,23.7,26.6,29,0.00,,---,0.00,VWS V14.01,2013-04-01 04:10:00,
2013-03-31 22:16:00,38.5,9.0,21.11,North,5,17.9,23.3,29,0.00,,---,0.00,VWS V14.01,2013-04-01 04:16:00,
2013-03-31 22:21:00,38.3,8.8,21.11,NNE,16,21.0,22.8,29,0.00,,---,0.00,VWS V14.01,2013-04-01 04:21:00,
2013-03-31 22:27:00,37.9,8.5,21.11,NNE,21,19.2,23.7,29,0.00,,---,0.00,VWS V14.01,2013-04-01 04:27:00,
2013-03-31 22:33:00,37.6,8.2,21.11,NNE,15,33.3,34.2,29,0.00,,---,0.00,VWS V14.01,2013-04-01 04:33:00,
2013-03-31 22:38:00,37.6,8.2,21.11,North,10,28.4,28.4,29,0.00,,---,0.00,VWS V14.01,2013-04-01 04:38:00,
2013-03-31 22:44:00,37.0,8.5,21.11,NNE,21,26.6,26.6,30,0.00,,---,0.00,VWS V14.01,2013-04-01 04:44:00,
2013-03-31 22:49:00,36.5,8.8,21.11,North,9,25.7,25.7,31,0.00,,---,0.00,VWS V14.01,2013-04-01 04:49:00,
2013-03-31 22:55:00,36.1,8.4,21.11,NNE,12,23.3,23.3,31,0.00,,---,0.00,VWS V14.01,2013-04-01 04:55:00,
2013-03-31 23:01:00,36.0,9.0,21.11,NNE,24,23.7,25.7,32,0.00,,---,0.00,VWS V14.01,2013-04-01 05:01:00,
2013-03-31 23:06:00,35.8,8.8,21.11,NNE,25,18.8,25.7,32,0.00,,---,0.00,VWS V14.01,2013-04-01 05:06:00,
2013-03-31 23:12:00,35.8,9.5,21.11,NNE,15,22.8,232.2,33,0.00,,---,0.00,VWS V14.01,2013-04-01 05:12:00,
2013-03-31 23:17:00,35.4,10.5,21.11,NNE,12,21.9,21.9,35,0.00,,---,0.00,VWS V14.01,2013-04-01 05:17:00,
2013-03-31 23:22:00,35.2,11.0,21.11,North,10,21.0,25.5,36,0.00,,---,0.00,VWS V14.01,2013-04-01 05:22:00,
2013-03-31 23:27:00,35.1,12.0,21.11,NNE,17,19.7,26.2,38,0.00,,---,0.00,VWS V14.01,2013-04-01 05:27:00,
2013-03-31 23:33:00,35.1,12.0,21.11,NNE,25,19.2,22.4,38,0.00,,---,0.00,VWS V14.01,2013-04-01 05:33:00,
2013-03-31 23:39:00,34.3,12.5,21.11,NNE,26,17.4,24.2,40,0.00,,---,0.00,VWS V14.01,2013-04-01 05:39:00,
2013-03-31 23:44:00,34.3,12.5,21.11,NNE,17,18.8,18.8,40,0.00,,---,0.00,VWS V14.01,2013-04-01 05:44:00,
2013-03-31 23:50:00,34.2,12.4,21.11,North,6,17.4,22.4,40,0.00,,---,0.00,VWS V14.01,2013-04-01 05:50:00,
2013-03-31 23:55:00,34.0,12.2,21.11,North,4,22.8,25.1,40,0.00,,---,0.00,VWS V14.01,2013-04-01 05:55:00,